Time;durP1;ratioP1;P1;durP2;ratioP2;P2;SDS_P1;SDS_P2;PMS_P1;PMS_P2;Temp;Humidity;BMP_temperature;BMP_pressure;BME280_temperature;BME280_humidity;BME280_pressure;Samples;Min_cycle;Max_cycle;Signal;HPM_P1;HPM_P2
2022/09/03 00:00:05;;;;;;;6.40;2.73;;;15.30;36.50;;;;;;4985623;28;46354;-66
2022/09/03 00:02:39;;;;;;;7.53;2.93;;;15.30;35.40;;;;;;4984727;28;46381;-64
2022/09/03 00:05:25;;;;;;;5.87;3.10;;;15.30;36.60;;;;;;4985347;28;46596;-65
2022/09/03 00:08:13;;;;;;;4.43;2.60;;;15.30;36.50;;;;;;4985643;28;46322;-64
2022/09/03 00:11:12;;;;;;;12.27;2.97;;;15.20;36.60;;;;;;4979574;28;46682;-64
2022/09/03 00:13:44;;;;;;;11.27;3.10;;;15.20;35.50;;;;;;4982693;28;46400;-64
2022/09/03 00:16:14;;;;;;;6.87;2.83;;;15.20;36.60;;;;;;4982264;28;46653;-64
2022/09/03 00:18:52;;;;;;;5.10;2.83;;;15.10;36.70;;;;;;4979709;28;45714;-65
2022/09/03 00:21:38;;;;;;;5.70;2.40;;;15.00;36.90;;;;;;4982445;28;46416;-65
2022/09/03 00:24:06;;;;;;;5.80;3.07;;;14.90;36.20;;;;;;4982330;28;46545;-64
2022/09/03 00:26:34;;;;;;;6.47;2.40;;;14.90;37.40;;;;;;4981814;28;46416;-65
2022/09/03 00:29:13;;;;;;;4.70;2.83;;;14.80;37.60;;;;;;4982038;28;46466;-65
2022/09/03 00:31:46;;;;;;;9.40;2.60;;;14.80;37.80;;;;;;4982274;28;46459;-64
2022/09/03 00:34:22;;;;;;;4.63;2.73;;;14.70;36.70;;;;;;4982999;28;46401;-64
2022/09/03 00:36:48;;;;;;;5.13;2.50;;;14.60;38.10;;;;;;4982004;28;46435;-65
2022/09/03 00:39:20;;;;;;;5.50;2.67;;;14.50;38.60;;;;;;4982649;28;46514;-63
2022/09/03 00:42:13;;;;;;;7.93;2.50;;;14.40;38.60;;;;;;4983266;28;45786;-64
2022/09/03 00:44:57;;;;;;;8.13;2.67;;;14.40;37.70;;;;;;4981336;28;48315;-64
2022/09/03 00:47:47;;;;;;;7.30;2.70;;;14.40;39.00;;;;;;4980975;28;46329;-64
2022/09/03 00:50:37;;;;;;;5.60;2.77;;;14.40;39.00;;;;;;4980627;28;46361;-64
2022/09/03 00:53:03;;;;;;;8.10;3.27;;;14.30;38.00;;;;;;4981096;28;46464;-64
2022/09/03 00:55:46;;;;;;;5.00;2.97;;;14.30;39.10;;;;;;4981734;28;46317;-64
2022/09/03 00:58:25;;;;;;;7.87;3.23;;;14.20;39.20;;;;;;4979596;28;46414;-64
2022/09/03 01:00:51;;;;;;;5.53;2.73;;;14.20;39.20;;;;;;4981636;28;46420;-64
2022/09/03 01:03:22;;;;;;;7.20;2.80;;;14.10;38.60;;;;;;4981780;28;46471;-64
2022/09/03 01:06:06;;;;;;;5.37;2.80;;;14.10;39.60;;;;;;4980146;28;46294;-65
2022/09/03 01:09:03;;;;;;;6.53;2.60;;;14.00;39.70;;;;;;4980458;28;46377;-66
2022/09/03 01:12:12;;;;;;;5.07;2.63;;;14.00;40.00;;;;;;4982620;28;46469;-63
2022/09/03 01:14:42;;;;;;;4.30;2.67;;;13.90;39.30;;;;;;4994858;28;46468;-66
2022/09/03 01:17:25;;;;;;;3.57;2.43;;;13.90;40.40;;;;;;4981922;28;47167;-64
2022/09/03 01:19:57;;;;;;;6.17;3.50;;;13.90;40.60;;;;;;4980992;28;46438;-65
2022/09/03 01:22:53;;;;;;;8.47;3.60;;;13.80;39.90;;;;;;4981143;28;46308;-65
2022/09/03 01:25:53;;;;;;;9.87;3.50;;;13.80;41.10;;;;;;4981843;28;46499;-65
2022/09/03 01:28:32;;;;;;;6.43;3.00;;;13.70;41.40;;;;;;4980437;28;47115;-64
2022/09/03 01:31:10;;;;;;;3.93;2.47;;;13.70;41.20;;;;;;4981114;28;46208;-64
2022/09/03 01:33:57;;;;;;;4.73;2.50;;;13.60;40.60;;;;;;4978555;28;46501;-67
2022/09/03 01:36:29;;;;;;;5.90;3.67;;;13.60;41.90;;;;;;4982102;28;45870;-64
2022/09/03 01:39:02;;;;;;;6.97;3.17;;;13.50;41.70;;;;;;4979593;28;46426;-65
2022/09/03 01:44:31;;;;;;;5.23;3.17;;;13.40;41.10;;;;;;4979013;28;46431;-63
2022/09/03 01:47:50;;;;;;;7.43;3.40;;;13.40;42.30;;;;;;4978731;28;46355;-64
2022/09/03 01:50:33;;;;;;;4.67;3.10;;;13.40;42.80;;;;;;4980820;28;46512;-64
2022/09/03 01:53:14;;;;;;;4.47;3.00;;;13.40;41.80;;;;;;4978733;28;46332;-65
2022/09/03 01:55:49;;;;;;;9.00;3.47;;;13.30;42.90;;;;;;4980718;28;46279;-65
2022/09/03 01:58:33;;;;;;;9.20;3.53;;;13.30;43.00;;;;;;4979057;28;46432;-66
2022/09/03 02:01:06;;;;;;;9.47;3.67;;;13.30;43.10;;;;;;4979276;28;46466;-64
2022/09/03 02:03:41;;;;;;;7.73;3.70;;;13.20;42.60;;;;;;4979179;28;46408;-64
2022/09/03 02:06:09;;;;;;;6.60;3.40;;;13.20;43.60;;;;;;4979667;28;46506;-64
2022/09/03 02:08:35;;;;;;;5.60;3.40;;;13.20;43.30;;;;;;4980156;28;46434;-64
2022/09/03 02:11:01;;;;;;;5.00;3.23;;;13.20;43.30;;;;;;4980486;28;47040;-65
2022/09/03 02:13:28;;;;;;;4.37;2.87;;;13.20;42.50;;;;;;4980393;28;46448;-65
2022/09/03 02:15:59;;;;;;;5.77;3.70;;;13.20;43.30;;;;;;4979819;28;46731;-64
2022/09/03 02:18:36;;;;;;;7.30;3.50;;;13.20;43.30;;;;;;4977215;28;46524;-65
2022/09/03 02:21:01;;;;;;;6.97;3.50;;;13.20;43.40;;;;;;4979221;28;46391;-65
2022/09/03 02:23:27;;;;;;;5.83;3.23;;;13.20;42.60;;;;;;4980731;28;45817;-64
2022/09/03 02:26:01;;;;;;;6.63;3.80;;;13.20;43.60;;;;;;4978829;28;46451;-64
2022/09/03 02:28:29;;;;;;;6.40;3.43;;;13.10;43.60;;;;;;4978691;28;46500;-64
2022/09/03 02:30:55;;;;;;;4.70;3.40;;;13.10;43.80;;;;;;4979430;28;47392;-64
2022/09/03 02:33:21;;;;;;;7.30;3.60;;;13.10;43.10;;;;;;4977912;28;46433;-63
2022/09/03 02:35:47;;;;;;;5.67;3.60;;;13.00;44.10;;;;;;4978525;28;46617;-64
2022/09/03 02:38:24;;;;;;;6.23;3.40;;;12.90;44.30;;;;;;4979418;28;46348;-66
2022/09/03 02:40:50;;;;;;;8.53;2.70;;;12.90;44.60;;;;;;4978551;28;47440;-64
2022/09/03 02:43:49;;;;;;;8.70;4.43;;;12.90;43.90;;;;;;4977030;28;45871;-64
2022/09/03 02:46:39;;;;;;;7.50;3.87;;;12.80;45.00;;;;;;4977121;28;46519;-64
2022/09/03 02:49:05;;;;;;;5.57;3.97;;;12.80;45.20;;;;;;4977578;28;46305;-63
2022/09/03 02:51:34;;;;;;;10.30;4.27;;;12.80;44.90;;;;;;4980246;28;46372;-65
2022/09/03 02:53:59;;;;;;;9.57;3.30;;;12.80;44.30;;;;;;4979361;28;46511;-63
2022/09/03 02:56:26;;;;;;;4.90;3.70;;;12.70;45.30;;;;;;4980341;28;46108;-64
2022/09/03 02:58:53;;;;;;;5.40;3.60;;;12.70;45.40;;;;;;4978573;28;46845;-64
2022/09/03 03:01:18;;;;;;;6.37;3.57;;;12.70;45.50;;;;;;4976128;28;46701;-66
2022/09/03 03:03:44;;;;;;;7.07;3.70;;;12.70;44.70;;;;;;4978037;28;46488;-65
2022/09/03 03:06:11;;;;;;;5.20;3.80;;;12.70;45.70;;;;;;4976625;28;46407;-65
2022/09/03 03:08:36;;;;;;;7.93;4.33;;;12.70;45.80;;;;;;4976980;28;46691;-65
2022/09/03 03:11:02;;;;;;;6.67;3.63;;;12.70;45.90;;;;;;4978811;28;47133;-65
2022/09/03 03:13:30;;;;;;;6.20;3.90;;;12.70;45.20;;;;;;4976279;28;46457;-64
2022/09/03 03:15:59;;;;;;;8.23;4.17;;;12.70;46.00;;;;;;4980050;28;46500;-65
2022/09/03 03:18:25;;;;;;;5.30;3.97;;;12.80;46.00;;;;;;4979661;28;46367;-65
2022/09/03 03:20:51;;;;;;;5.30;3.33;;;12.80;46.00;;;;;;4980715;28;46607;-65
2022/09/03 03:23:16;;;;;;;11.83;3.60;;;12.90;44.90;;;;;;4980150;28;46312;-64
2022/09/03 03:25:42;;;;;;;5.17;4.03;;;13.00;45.70;;;;;;4980120;28;46394;-65
2022/09/03 03:28:08;;;;;;;4.13;3.30;;;13.10;45.40;;;;;;4979146;28;46532;-65
2022/09/03 03:30:38;;;;;;;6.77;3.80;;;13.20;45.20;;;;;;4980015;28;47158;-65
2022/09/03 03:33:04;;;;;;;5.07;3.83;;;13.30;43.90;;;;;;4979720;28;46332;-64
2022/09/03 03:35:30;;;;;;;4.97;3.57;;;13.30;44.80;;;;;;4980460;28;46556;-64
2022/09/03 03:37:59;;;;;;;6.43;4.50;;;13.40;44.70;;;;;;4980087;28;46395;-64
2022/09/03 03:40:25;;;;;;;6.10;3.90;;;13.50;44.70;;;;;;4980119;28;46187;-64
2022/09/03 03:42:52;;;;;;;5.60;3.73;;;13.50;43.80;;;;;;4979938;28;46450;-66
2022/09/03 03:45:18;;;;;;;5.70;3.80;;;13.50;44.90;;;;;;4982381;28;45886;-66
2022/09/03 03:47:44;;;;;;;9.93;3.83;;;13.50;45.00;;;;;;4983524;28;46935;-65
2022/09/03 03:50:09;;;;;;;6.10;4.20;;;13.50;45.20;;;;;;4982936;28;46955;-65
2022/09/03 03:52:35;;;;;;;7.90;4.83;;;13.50;44.20;;;;;;4981982;28;46391;-65
2022/09/03 03:55:00;;;;;;;6.00;4.13;;;13.50;45.30;;;;;;4984089;28;46185;-65
2022/09/03 03:57:29;;;;;;;6.17;4.07;;;13.60;45.50;;;;;;4983158;28;45847;-66
2022/09/03 03:59:55;;;;;;;5.97;3.53;;;13.60;45.50;;;;;;4982295;28;46341;-65
2022/09/03 04:02:21;;;;;;;11.53;4.03;;;13.60;44.60;;;;;;4982469;28;46411;-64
2022/09/03 04:04:46;;;;;;;4.63;3.23;;;13.60;45.60;;;;;;4983852;28;45927;-64
2022/09/03 04:07:12;;;;;;;5.20;3.47;;;13.60;45.70;;;;;;4981581;28;46399;-64
2022/09/03 04:09:38;;;;;;;6.60;3.97;;;13.60;45.70;;;;;;4982559;28;46467;-65
2022/09/03 04:12:07;;;;;;;5.60;3.87;;;13.60;45.00;;;;;;4981476;28;46407;-64
2022/09/03 04:14:34;;;;;;;6.00;3.40;;;13.60;46.10;;;;;;4983763;28;46441;-64
2022/09/03 04:17:01;;;;;;;10.70;4.17;;;13.60;46.20;;;;;;4983204;28;46419;-66
2022/09/03 04:19:28;;;;;;;4.53;3.40;;;13.60;46.40;;;;;;4980977;28;46962;-65
2022/09/03 04:21:54;;;;;;;7.30;3.97;;;13.60;46.50;;;;;;4981218;28;46428;-64
2022/09/03 04:24:20;;;;;;;5.77;4.07;;;13.50;45.70;;;;;;4981036;28;45728;-64
2022/09/03 04:26:46;;;;;;;5.27;3.70;;;13.50;47.20;;;;;;4982804;28;46218;-64
2022/09/03 04:29:11;;;;;;;5.23;3.63;;;13.40;47.90;;;;;;4981705;28;46356;-63
2022/09/03 04:31:37;;;;;;;9.40;4.73;;;13.30;48.20;;;;;;4981822;28;46623;-62
2022/09/03 04:34:06;;;;;;;8.40;4.63;;;13.20;47.60;;;;;;4982518;28;46293;-64
2022/09/03 04:36:33;;;;;;;11.53;4.17;;;13.30;48.60;;;;;;4981371;28;46517;-63
2022/09/03 04:39:03;;;;;;;5.90;3.77;;;13.20;48.60;;;;;;4980483;28;46459;-64
2022/09/03 04:41:30;;;;;;;6.07;3.53;;;13.30;48.70;;;;;;4983028;28;46628;-66
2022/09/03 04:43:57;;;;;;;5.57;3.80;;;13.40;47.40;;;;;;4981637;28;46612;-63
2022/09/03 04:46:26;;;;;;;7.83;4.43;;;13.50;48.00;;;;;;4982245;28;46625;-66
2022/09/03 04:48:53;;;;;;;9.30;4.00;;;13.60;47.60;;;;;;4980794;28;46389;-64
2022/09/03 04:51:22;;;;;;;6.50;3.60;;;13.80;47.40;;;;;;4980089;28;46356;-64
2022/09/03 04:53:57;;;;;;;5.60;3.40;;;13.90;46.20;;;;;;4981761;28;46712;-64
2022/09/03 04:56:28;;;;;;;6.13;3.33;;;14.00;47.20;;;;;;4980939;28;45782;-65
2022/09/03 04:58:59;;;;;;;6.63;3.37;;;14.00;47.20;;;;;;4981505;28;46360;-64
2022/09/03 05:01:27;;;;;;;5.40;3.67;;;14.00;47.10;;;;;;4980259;28;46230;-64
2022/09/03 05:03:55;;;;;;;5.30;3.77;;;14.10;46.20;;;;;;4980973;28;46729;-65
2022/09/03 05:06:20;;;;;;;8.43;3.80;;;14.10;47.20;;;;;;4981728;28;45892;-64
2022/09/03 05:08:51;;;;;;;6.17;3.77;;;14.20;47.10;;;;;;4981052;28;47434;-66
2022/09/03 05:11:18;;;;;;;6.97;3.53;;;14.20;47.10;;;;;;4981951;28;46389;-65
2022/09/03 05:13:47;;;;;;;6.50;3.83;;;14.30;45.90;;;;;;4982630;28;46670;-65
2022/09/03 05:16:14;;;;;;;6.23;4.13;;;14.40;46.50;;;;;;4980126;28;46664;-65
2022/09/03 05:18:40;;;;;;;6.40;2.80;;;14.50;46.10;;;;;;4981712;28;46016;-65
2022/09/03 05:21:09;;;;;;;7.83;4.10;;;14.60;45.70;;;;;;4981187;28;46351;-65
2022/09/03 05:23:37;;;;;;;6.20;3.90;;;14.70;44.30;;;;;;4981781;28;46431;-64
2022/09/03 05:26:08;;;;;;;7.47;3.70;;;14.70;45.30;;;;;;4981421;28;46414;-65
2022/09/03 05:28:36;;;;;;;7.50;3.97;;;14.80;45.20;;;;;;4981140;28;47274;-64
2022/09/03 05:31:05;;;;;;;5.80;3.77;;;14.80;45.20;;;;;;4981750;28;46755;-63
2022/09/03 05:33:35;;;;;;;5.23;3.80;;;14.80;44.30;;;;;;4980948;28;45836;-65
2022/09/03 05:36:06;;;;;;;4.67;3.30;;;14.90;45.30;;;;;;4981770;28;45809;-65
2022/09/03 05:38:31;;;;;;;5.77;3.90;;;14.90;45.10;;;;;;4979821;28;47001;-65
2022/09/03 05:41:06;;;;;;;8.80;3.73;;;15.00;45.00;;;;;;4981172;28;46396;-65
2022/09/03 05:43:32;;;;;;;5.73;4.07;;;15.00;43.90;;;;;;4981955;28;46446;-66
2022/09/03 05:46:10;;;;;;;9.60;4.27;;;15.00;45.00;;;;;;4981773;28;46457;-65
2022/09/03 05:48:37;;;;;;;6.10;4.33;;;15.00;45.10;;;;;;4979294;28;47292;-64
2022/09/03 05:51:04;;;;;;;6.77;4.30;;;14.90;45.70;;;;;;4980566;28;46441;-64
2022/09/03 05:53:33;;;;;;;7.43;4.03;;;14.90;45.30;;;;;;4980019;28;46395;-65
2022/09/03 05:56:05;;;;;;;10.30;5.13;;;14.80;46.50;;;;;;4981222;28;46431;-66
2022/09/03 05:58:35;;;;;;;12.17;5.50;;;14.70;46.90;;;;;;4979092;28;46369;-65
2022/09/03 06:01:20;;;;;;;5.43;4.07;;;14.80;46.90;;;;;;4980749;28;46363;-64
2022/09/03 06:03:52;;;;;;;8.50;4.60;;;14.90;45.90;;;;;;4980220;28;46490;-64
2022/09/03 06:06:17;;;;;;;5.47;4.30;;;14.90;46.80;;;;;;4977947;28;45858;-64
2022/09/03 06:08:43;;;;;;;7.90;4.53;;;15.00;46.70;;;;;;4978548;28;47119;-64
2022/09/03 06:11:10;;;;;;;7.17;5.27;;;15.10;46.80;;;;;;4981713;28;46365;-65
2022/09/03 06:13:36;;;;;;;8.57;4.70;;;15.30;45.80;;;;;;4981299;28;46460;-64
2022/09/03 06:16:06;;;;;;;10.10;4.97;;;15.30;46.60;;;;;;4981125;28;46639;-64
2022/09/03 06:18:32;;;;;;;10.77;5.23;;;15.40;46.70;;;;;;4980936;28;46774;-64
2022/09/03 06:21:03;;;;;;;8.30;6.50;;;15.20;47.70;;;;;;4980107;28;46303;-65
2022/09/03 06:23:30;;;;;;;10.60;6.57;;;15.10;47.70;;;;;;4980013;28;46389;-65
2022/09/03 06:26:06;;;;;;;8.80;5.70;;;15.10;48.50;;;;;;4980113;28;46736;-65
2022/09/03 06:28:38;;;;;;;15.13;6.50;;;15.40;48.50;;;;;;4979336;28;47082;-65
2022/09/03 06:31:06;;;;;;;12.93;6.40;;;15.50;48.00;;;;;;4980343;28;46412;-65
2022/09/03 06:33:34;;;;;;;8.67;5.47;;;15.70;46.90;;;;;;4980081;28;47243;-65
2022/09/03 06:36:02;;;;;;;10.70;5.93;;;15.70;47.70;;;;;;4979847;28;46292;-66
2022/09/03 06:38:30;;;;;;;7.53;5.20;;;15.80;47.60;;;;;;4977158;28;47439;-65
2022/09/03 06:41:00;;;;;;;11.03;4.80;;;16.00;47.80;;;;;;4979207;28;46424;-65
2022/09/03 06:43:28;;;;;;;6.73;4.80;;;16.10;46.50;;;;;;4980899;28;46308;-65
2022/09/03 06:45:59;;;;;;;15.00;5.10;;;16.20;47.40;;;;;;4980616;28;46532;-65
2022/09/03 06:48:26;;;;;;;8.37;5.20;;;16.40;47.20;;;;;;4979215;28;46493;-65
2022/09/03 06:51:11;;;;;;;9.07;4.80;;;16.60;48.30;;;;;;4974943;28;46443;-64
2022/09/03 06:53:40;;;;;;;6.93;4.70;;;16.80;45.70;;;;;;4974023;28;46446;-65
2022/09/03 06:56:08;;;;;;;7.33;5.07;;;17.00;46.60;;;;;;4974917;28;45816;-66
2022/09/03 06:58:37;;;;;;;7.07;4.67;;;17.20;46.50;;;;;;4978509;28;47493;-67
2022/09/03 07:01:17;;;;;;;7.60;4.37;;;17.50;46.10;;;;;;4975688;28;46519;-63
2022/09/03 07:03:44;;;;;;;10.13;4.50;;;17.90;44.60;;;;;;4976429;28;46538;-65
2022/09/03 07:06:16;;;;;;;5.77;4.37;;;18.10;45.90;;;;;;4976391;28;46443;-65
2022/09/03 07:08:42;;;;;;;9.43;5.70;;;18.40;45.60;;;;;;4975560;28;47805;-65
2022/09/03 07:11:10;;;;;;;7.43;4.67;;;18.50;45.20;;;;;;4979446;28;46507;-66
2022/09/03 07:13:39;;;;;;;5.30;4.70;;;19.00;43.90;;;;;;4975763;28;46447;-66
2022/09/03 07:16:08;;;;;;;9.83;4.87;;;19.30;44.60;;;;;;4979152;28;46423;-66
2022/09/03 07:18:33;;;;;;;7.00;5.23;;;19.80;43.80;;;;;;4978663;28;46368;-66
2022/09/03 07:21:05;;;;;;;7.10;5.03;;;20.10;43.10;;;;;;4983191;28;46414;-66
2022/09/03 07:23:31;;;;;;;6.53;4.00;;;20.10;41.70;;;;;;4982893;28;46364;-67
2022/09/03 07:26:00;;;;;;;5.57;4.20;;;20.20;42.60;;;;;;4984189;28;46414;-66
2022/09/03 07:28:27;;;;;;;9.77;4.50;;;20.00;42.70;;;;;;4982784;28;46425;-65
2022/09/03 07:30:54;;;;;;;7.47;4.10;;;19.90;43.10;;;;;;4983149;28;46440;-65
2022/09/03 07:33:20;;;;;;;5.63;4.50;;;19.80;43.60;;;;;;4983638;28;48300;-65
2022/09/03 07:35:46;;;;;;;8.87;5.00;;;19.80;43.80;;;;;;4983343;28;46289;-65
2022/09/03 07:38:18;;;;;;;6.20;4.83;;;19.70;43.80;;;;;;4983473;28;47353;-65
2022/09/03 07:40:45;;;;;;;7.17;4.50;;;19.90;43.40;;;;;;4982567;28;46841;-65
2022/09/03 07:43:11;;;;;;;8.00;4.97;;;20.10;43.20;;;;;;4983715;28;46501;-66
2022/09/03 07:45:37;;;;;;;8.90;4.83;;;20.20;43.00;;;;;;4983263;28;46309;-66
2022/09/03 07:48:04;;;;;;;7.90;5.10;;;20.40;42.70;;;;;;4979976;28;48476;-66
2022/09/03 07:50:32;;;;;;;8.43;5.40;;;20.50;42.60;;;;;;4983003;28;46398;-66
2022/09/03 07:52:58;;;;;;;10.30;5.50;;;20.70;41.60;;;;;;4982663;28;46350;-66
2022/09/03 07:55:24;;;;;;;7.60;4.73;;;20.70;42.70;;;;;;4983221;28;45764;-65
2022/09/03 07:57:55;;;;;;;9.97;5.20;;;20.80;42.50;;;;;;4983000;28;46438;-66
2022/09/03 08:00:20;;;;;;;6.53;5.40;;;20.80;42.60;;;;;;4982812;28;46396;-66
2022/09/03 08:02:46;;;;;;;7.63;5.63;;;20.90;42.60;;;;;;4982831;28;46347;-66
2022/09/03 08:05:12;;;;;;;7.60;5.17;;;21.10;42.50;;;;;;4983369;28;46507;-65
2022/09/03 08:07:37;;;;;;;10.80;5.33;;;21.20;42.00;;;;;;4981398;28;46778;-67
2022/09/03 08:10:03;;;;;;;11.40;5.67;;;21.40;41.60;;;;;;4983450;28;46537;-66
2022/09/03 08:12:31;;;;;;;11.20;6.17;;;21.60;41.20;;;;;;4982719;28;46419;-67
2022/09/03 08:14:57;;;;;;;11.93;6.20;;;21.70;41.20;;;;;;4983328;28;46580;-66
2022/09/03 08:17:22;;;;;;;9.70;5.40;;;21.90;40.80;;;;;;4982014;28;46292;-65
2022/09/03 08:19:48;;;;;;;7.43;5.40;;;22.00;40.30;;;;;;4982773;28;46408;-65
2022/09/03 08:22:14;;;;;;;7.80;5.33;;;22.10;38.70;;;;;;4981567;28;46408;-65
2022/09/03 08:24:40;;;;;;;7.53;5.33;;;22.10;39.80;;;;;;4994310;28;46708;-66
2022/09/03 08:27:06;;;;;;;7.00;4.97;;;22.10;39.70;;;;;;4980221;28;46339;-66
2022/09/03 08:29:32;;;;;;;6.80;4.40;;;22.10;39.70;;;;;;4981380;28;46438;-64
2022/09/03 08:31:57;;;;;;;5.83;4.67;;;22.20;39.60;;;;;;4980976;28;46427;-66
2022/09/03 08:34:23;;;;;;;7.60;4.97;;;22.10;38.30;;;;;;4975097;28;46435;-65
2022/09/03 08:36:51;;;;;;;5.37;3.63;;;22.20;39.40;;;;;;4978781;28;47207;-65
2022/09/03 08:39:16;;;;;;;5.90;4.07;;;22.20;39.40;;;;;;4976897;28;46400;-67
2022/09/03 08:41:54;;;;;;;5.00;3.87;;;22.40;38.90;;;;;;4978965;28;46509;-68
2022/09/03 08:44:27;;;;;;;5.27;4.10;;;22.60;37.00;;;;;;4978800;28;46547;-67
2022/09/03 08:47:04;;;;;;;10.10;4.13;;;22.80;37.60;;;;;;4976108;28;45981;-67
2022/09/03 08:49:34;;;;;;;5.30;3.83;;;22.90;37.20;;;;;;4978017;28;46544;-66
2022/09/03 08:52:06;;;;;;;4.43;3.33;;;23.80;35.60;;;;;;4978202;28;45868;-67
2022/09/03 08:54:32;;;;;;;4.13;3.13;;;23.80;36.70;;;;;;4978088;28;46540;-66
2022/09/03 08:57:01;;;;;;;6.30;3.33;;;24.10;35.50;;;;;;4976422;28;46454;-65
2022/09/03 08:59:30;;;;;;;5.70;3.33;;;24.10;34.80;;;;;;4977346;28;46463;-65
2022/09/03 09:02:25;;;;;;;6.10;3.17;;;24.10;34.60;;;;;;4978619;28;46638;-67
2022/09/03 09:05:11;;;;;;;4.53;2.93;;;24.40;33.80;;;;;;4953476;28;46475;-67
2022/09/03 09:07:46;;;;;;;4.77;3.00;;;24.40;34.70;;;;;;4978837;28;47169;-68
2022/09/03 09:10:20;;;;;;;3.90;2.47;;;24.50;33.30;;;;;;4978002;28;46486;-67
2022/09/03 09:13:07;;;;;;;3.60;2.50;;;24.50;33.30;;;;;;4977945;28;46673;-66
2022/09/03 09:15:47;;;;;;;4.50;2.53;;;24.50;33.10;;;;;;4977458;28;46461;-65
2022/09/03 09:18:22;;;;;;;3.73;2.10;;;24.40;32.90;;;;;;4978504;28;46041;-67
2022/09/03 09:20:56;;;;;;;5.10;2.27;;;24.30;32.70;;;;;;4978445;28;46522;-66
2022/09/03 09:23:24;;;;;;;3.80;2.13;;;24.30;33.20;;;;;;4976919;28;46437;-65
2022/09/03 09:25:54;;;;;;;3.60;2.23;;;24.30;32.00;;;;;;4978333;28;46406;-66
2022/09/03 09:28:22;;;;;;;3.30;2.40;;;24.30;31.80;;;;;;4976536;28;46741;-66
2022/09/03 09:30:50;;;;;;;5.33;2.80;;;24.60;31.10;;;;;;4975891;28;46463;-67
2022/09/03 09:33:18;;;;;;;4.03;2.70;;;24.70;30.20;;;;;;4977536;28;46645;-66
2022/09/03 09:35:44;;;;;;;3.53;2.10;;;24.80;29.80;;;;;;4979158;28;46531;-67
2022/09/03 09:38:11;;;;;;;4.37;2.40;;;24.80;29.70;;;;;;4979728;28;47257;-67
2022/09/03 09:40:41;;;;;;;4.00;2.50;;;24.70;29.40;;;;;;4977237;28;46487;-65
2022/09/03 09:43:11;;;;;;;7.20;3.13;;;24.30;28.50;;;;;;4975218;28;46408;-66
2022/09/03 09:45:39;;;;;;;4.00;2.50;;;24.20;29.70;;;;;;4979744;28;46367;-67
2022/09/03 09:48:28;;;;;;;4.90;2.50;;;24.10;29.80;;;;;;4978846;28;46225;-67
2022/09/03 09:51:09;;;;;;;6.30;2.70;;;24.00;29.90;;;;;;4978829;28;46350;-67
2022/09/03 09:53:35;;;;;;;3.30;2.20;;;24.00;29.90;;;;;;4978489;28;46531;-66
2022/09/03 09:56:04;;;;;;;7.27;2.43;;;24.00;29.80;;;;;;4980046;28;46768;-69
2022/09/03 09:58:31;;;;;;;4.30;2.30;;;24.10;29.60;;;;;;4979499;28;45953;-68
2022/09/03 10:01:11;;;;;;;5.90;2.17;;;24.00;29.50;;;;;;4974805;28;46463;-67
2022/09/03 10:03:59;;;;;;;4.20;2.30;;;24.00;29.20;;;;;;4977841;28;46753;-67
2022/09/03 10:07:14;;;;;;;6.80;2.40;;;24.00;29.30;;;;;;4977515;28;47276;-67
2022/09/03 10:09:22;;;;;;;4.00;2.60;;;23.80;29.60;;;;;;4979629;28;46959;-68
2022/09/03 10:12:04;;;;;;;3.57;2.43;;;23.60;29.90;;;;;;4974667;28;46463;-67
2022/09/03 10:15:11;;;;;;;3.17;2.10;;;23.60;29.10;;;;;;4977389;28;45877;-67
2022/09/03 10:17:55;;;;;;;4.57;2.70;;;23.50;30.30;;;;;;4976946;28;46287;-67
2022/09/03 10:20:30;;;;;;;5.03;2.13;;;23.70;30.30;;;;;;4979195;28;46444;-66
2022/09/03 10:23:24;;;;;;;5.80;2.63;;;24.10;29.00;;;;;;4978485;28;46388;-67
2022/09/03 10:25:55;;;;;;;4.37;2.57;;;24.20;29.40;;;;;;4973287;28;46440;-67
2022/09/03 10:28:25;;;;;;;4.17;2.20;;;24.50;28.90;;;;;;4975980;28;46603;-67
2022/09/03 10:31:18;;;;;;;2.80;1.70;;;24.80;28.10;;;;;;4975466;28;47648;-68
2022/09/03 10:33:50;;;;;;;3.53;1.93;;;25.20;26.90;;;;;;4975135;28;46366;-68
2022/09/03 10:36:33;;;;;;;3.03;2.00;;;25.50;26.20;;;;;;4974912;28;46447;-67
2022/09/03 10:39:03;;;;;;;3.40;2.07;;;25.70;26.30;;;;;;4975516;28;46155;-67
2022/09/03 10:41:34;;;;;;;4.93;2.30;;;25.80;26.40;;;;;;4975472;28;46458;-67
2022/09/03 10:44:25;;;;;;;5.03;2.23;;;25.70;25.50;;;;;;4975883;28;45887;-67
2022/09/03 10:47:11;;;;;;;4.67;2.47;;;25.80;26.00;;;;;;4976453;28;46506;-68
2022/09/03 10:50:16;;;;;;;7.40;2.23;;;25.90;25.40;;;;;;4978012;28;46456;-68
2022/09/03 10:52:56;;;;;;;3.03;2.13;;;26.20;24.70;;;;;;4976961;28;46487;-68
2022/09/03 10:55:34;;;;;;;3.33;1.93;;;26.20;24.60;;;;;;4971863;28;45858;-67
2022/09/03 10:58:24;;;;;;;2.83;1.90;;;26.10;24.70;;;;;;4974395;28;45832;-68
2022/09/03 11:00:53;;;;;;;3.97;2.27;;;26.20;24.10;;;;;;4977167;28;46463;-68
2022/09/03 11:03:27;;;;;;;4.97;2.37;;;26.40;24.20;;;;;;4976329;28;46041;-68
2022/09/03 11:06:27;;;;;;;2.77;1.87;;;26.70;23.50;;;;;;4976199;28;46718;-68
2022/09/03 11:09:01;;;;;;;3.47;1.90;;;26.80;22.50;;;;;;4957397;28;46710;-67
2022/09/03 11:11:49;;;;;;;6.80;2.00;;;26.70;22.50;;;;;;4976298;28;46875;-67
2022/09/03 11:14:24;;;;;;;5.60;2.07;;;26.70;21.40;;;;;;4975023;28;47234;-68
2022/09/03 11:17:02;;;;;;;4.33;2.10;;;26.90;22.00;;;;;;4973504;28;46170;-69
2022/09/03 11:19:41;;;;;;;3.67;2.13;;;27.10;21.00;;;;;;4976148;28;46515;-68
2022/09/03 11:22:09;;;;;;;3.00;1.80;;;27.20;19.80;;;;;;4976289;28;46439;-67
2022/09/03 11:24:39;;;;;;;4.93;2.20;;;27.20;20.60;;;;;;4974982;28;47066;-68
2022/09/03 11:27:16;;;;;;;4.30;2.07;;;27.00;20.40;;;;;;4973785;28;46459;-68
2022/09/03 11:30:13;;;;;;;3.70;2.13;;;27.10;20.60;;;;;;4976873;28;46519;-68
2022/09/03 11:32:49;;;;;;;4.00;2.20;;;27.20;20.60;;;;;;4975649;28;46742;-68
2022/09/03 11:35:34;;;;;;;3.80;1.90;;;27.00;20.80;;;;;;4973446;28;46529;-68
2022/09/03 11:38:19;;;;;;;3.03;1.90;;;26.40;20.80;;;;;;4967935;28;46423;-68
2022/09/03 11:41:03;;;;;;;3.27;1.90;;;26.30;21.30;;;;;;4974184;28;46425;-68
2022/09/03 11:43:30;;;;;;;6.23;2.13;;;26.10;21.50;;;;;;4974754;28;46333;-67
2022/09/03 11:46:27;;;;;;;3.03;2.00;;;25.90;22.40;;;;;;4975460;28;46486;-67
2022/09/03 11:49:00;;;;;;;7.93;1.80;;;25.90;22.60;;;;;;4977816;28;46419;-67
2022/09/03 11:51:29;;;;;;;3.10;2.03;;;25.90;22.70;;;;;;4976110;28;47708;-67
2022/09/03 11:53:59;;;;;;;2.80;1.87;;;25.80;21.80;;;;;;4975241;28;46566;-68
2022/09/03 11:56:25;;;;;;;3.30;1.80;;;25.60;23.10;;;;;;4975333;28;46968;-67
2022/09/03 11:59:03;;;;;;;2.60;1.30;;;25.50;23.00;;;;;;4974860;28;46882;-67
2022/09/03 12:01:29;;;;;;;2.83;1.50;;;25.20;22.50;;;;;;4975691;28;46432;-66
2022/09/03 12:04:02;;;;;;;2.60;1.40;;;24.90;22.10;;;;;;4977900;28;46741;-66
2022/09/03 12:06:56;;;;;;;3.07;1.50;;;24.90;23.10;;;;;;4978035;28;46788;-67
2022/09/03 12:09:50;;;;;;;3.80;1.43;;;25.10;22.70;;;;;;4977691;28;47575;-68
2022/09/03 12:12:45;;;;;;;4.43;1.47;;;25.20;21.90;;;;;;4979287;28;46447;-69
2022/09/03 12:15:45;;;;;;;3.00;1.70;;;25.20;22.10;;;;;;4995821;28;45904;-68
2022/09/03 12:18:34;;;;;;;2.30;1.40;;;25.20;21.70;;;;;;4979810;28;47306;-66
2022/09/03 12:21:03;;;;;;;2.97;1.87;;;25.20;21.30;;;;;;4979343;28;46675;-68
2022/09/03 12:23:43;;;;;;;2.90;1.70;;;25.10;21.50;;;;;;4980124;28;46490;-69
2022/09/03 12:26:15;;;;;;;2.50;1.47;;;24.90;21.50;;;;;;4979408;28;46473;-68
2022/09/03 12:28:49;;;;;;;3.50;1.30;;;24.90;21.40;;;;;;4972617;28;48417;-68
2022/09/03 12:31:23;;;;;;;2.47;1.70;;;25.00;21.50;;;;;;4977920;28;46427;-67
2022/09/03 12:33:54;;;;;;;5.17;1.50;;;25.90;19.60;;;;;;4978499;28;46498;-68
2022/09/03 12:36:22;;;;;;;2.80;1.53;;;26.40;19.80;;;;;;4978516;28;46944;-66
2022/09/03 12:38:49;;;;;;;2.50;1.50;;;26.70;19.10;;;;;;4975984;28;46478;-68
2022/09/03 12:41:25;;;;;;;2.50;1.33;;;26.40;19.00;;;;;;4977589;28;47398;-67
2022/09/03 12:43:56;;;;;;;3.53;1.53;;;26.20;18.60;;;;;;4976377;28;46752;-68
2022/09/03 12:46:24;;;;;;;2.63;1.60;;;26.20;19.50;;;;;;4979760;28;46395;-67
2022/09/03 12:49:04;;;;;;;3.27;1.10;;;26.20;19.30;;;;;;4978555;28;46530;-67
2022/09/03 12:51:47;;;;;;;2.60;1.37;;;26.00;19.50;;;;;;4980658;28;46914;-67
2022/09/03 12:54:14;;;;;;;3.73;1.50;;;25.80;18.80;;;;;;4976938;28;46487;-69
2022/09/03 12:56:44;;;;;;;3.00;1.60;;;25.60;20.20;;;;;;4977344;28;46579;-68
2022/09/03 12:59:14;;;;;;;2.47;1.50;;;25.20;20.30;;;;;;4977626;28;46733;-68
2022/09/03 13:01:49;;;;;;;3.17;1.50;;;25.10;20.50;;;;;;4978815;28;46387;-70
2022/09/03 13:04:28;;;;;;;2.80;1.60;;;24.90;20.00;;;;;;4978557;28;46504;-67
2022/09/03 13:07:10;;;;;;;2.67;1.50;;;24.60;21.20;;;;;;4979371;28;46487;-69
2022/09/03 13:09:38;;;;;;;2.40;1.37;;;24.30;21.90;;;;;;4978797;28;46643;-68
2022/09/03 13:12:04;;;;;;;3.27;1.40;;;23.80;22.30;;;;;;4979442;28;46382;-70
2022/09/03 13:14:42;;;;;;;2.67;1.70;;;23.80;23.20;;;;;;4978062;28;46380;-67
2022/09/03 13:17:23;;;;;;;2.47;1.40;;;23.50;23.90;;;;;;4976973;28;46687;-68